Aérodrome :
LOGIN :

S'inscrire | Disclaimer

   EN    FR    IT 

 










Légende :    VFR   VFR Marginal   IFR   IFR Intensif   IFR Très Intensif
Visi : 
Plafond : 
>= 8 km
>= 3000ft
5 à 8 km
1000 à 3000 ft
1500m à 5 km
500 à 1000 ft
800 à 1500m
200 à 500 ft
< 800m
< 200 ft
Symboles :   Orages  Brouillard  Fortes neiges  Fortes précipitations  Vent > 20 kt
SIGMETs :   Divers  Orages  Givrage  Turbulence  Onde Orograph.  Cendres Volcan.







- Altitude de l'aérodrome : 55 ft
- Voir les cartes d'approche


EGNO - Warton Preston

DERNIER METAR :
  • 181650Z 15013KT 9999 FEW014 SCT020 BKN041 04/02 Q1008

METARs EXPIRÉS :
  • 181620Z 15012KT 120V180 9999 FEW014 BKN018 03/02 Q1009
  • 181550Z 14011KT 110V170 9999 FEW014 BKN018 03/02 Q1009
  • 181520Z 14012KT 8000 -RASN FEW011 BKN039 03/02 Q1009
  • 181450Z 14013KT 8000 -RASN FEW009 BKN033 02/01 Q1009

TAF TAF EGNO
Valide du 18 à 15h jusqu'au 18 à 19h UTC


181355Z 1815/1819 13012KT 9999 SCT010 BKN016
TEMPO 1815/1819 6000 -RA BKN010
PROB30
TEMPO 1815/1819 14016G26KT
PROB30
TEMPO 1815/1816 3500 RASN BKN004
PROB30
TEMPO 1816/1819 4000 RADZ BKN004
ATIS : +44 1772 856 060
Pas de NOTAMs connus pour ce terrain.



MET'MAP, la Météo Aéronautique d'un coup d'oeil ! - Copyright ORBIFLY Décembre 2007 - Disclaimer

ORBIFLY MET'MAP TEAM :

Programmation & Développement : Alexandra Zaïnal
Conception & Développement : Baudouin d'Aumeries
Co-Programmation & Développement : Marc-Olivier Méhu
Soutien technique & logistique : Manuel Goepfert

Contact : metmap@orbifly.com




SOURCES & CREDITS :

   NOAA